Time;durP1;ratioP1;P1;durP2;ratioP2;P2;SDS_P1;SDS_P2;PMS_P1;PMS_P2;Temp;Humidity;BMP_temperature;BMP_pressure;BME280_temperature;BME280_humidity;BME280_pressure;Samples;Min_cycle;Max_cycle;Signal;HPM_P1;HPM_P2
2021/06/03 00:02:12;;;;;;;3.63;1.05;;;19.90;65.20;;;;;;5059784;28;20036;-67
2021/06/03 00:04:37;;;;;;;1.90;0.80;;;19.90;65.30;;;;;;5062480;28;20036;-67
2021/06/03 00:07:04;;;;;;;4.38;0.98;;;19.90;65.40;;;;;;5049666;28;20025;-67
2021/06/03 00:09:30;;;;;;;3.72;0.63;;;19.90;65.90;;;;;;5043116;28;20039;-67
2021/06/03 00:11:56;;;;;;;2.30;0.60;;;19.80;66.10;;;;;;5042674;28;20085;-67
2021/06/03 00:14:21;;;;;;;3.00;1.10;;;19.70;66.70;;;;;;5051245;28;20433;-67
2021/06/03 00:16:47;;;;;;;5.82;0.85;;;19.60;67.20;;;;;;5045389;28;20025;-67
2021/06/03 00:19:14;;;;;;;2.63;0.60;;;19.50;67.60;;;;;;5065707;28;20024;-67
2021/06/03 00:21:41;;;;;;;3.80;0.82;;;19.40;67.90;;;;;;5045266;28;20478;-67
2021/06/03 00:24:07;;;;;;;2.47;0.88;;;19.30;68.10;;;;;;5049076;28;20112;-67
2021/06/03 00:26:34;;;;;;;4.10;0.85;;;19.30;68.50;;;;;;5052501;28;20439;-67
2021/06/03 00:29:01;;;;;;;2.05;0.70;;;19.20;68.40;;;;;;5050744;28;20039;-67
2021/06/03 00:31:27;;;;;;;1.33;0.63;;;19.20;68.40;;;;;;5058592;28;20453;-68
2021/06/03 00:33:52;;;;;;;2.05;0.95;;;19.30;68.30;;;;;;5060056;28;20036;-68
2021/06/03 00:36:18;;;;;;;2.80;0.98;;;19.30;68.20;;;;;;5051865;28;20029;-68
2021/06/03 00:38:44;;;;;;;4.32;1.25;;;19.30;68.20;;;;;;5063429;28;20032;-67
2021/06/03 00:41:10;;;;;;;2.45;1.15;;;19.30;68.20;;;;;;5054068;28;20041;-66
2021/06/03 00:43:37;;;;;;;3.72;1.27;;;19.30;68.30;;;;;;5053540;28;20410;-66
2021/06/03 00:46:05;;;;;;;4.78;1.50;;;19.30;68.40;;;;;;5050093;28;20108;-67
2021/06/03 00:48:31;;;;;;;3.85;1.23;;;19.30;68.50;;;;;;5055452;28;20112;-67
2021/06/03 00:51:00;;;;;;;10.10;1.33;;;19.30;68.80;;;;;;5061367;28;20054;-67
2021/06/03 00:53:27;;;;;;;4.93;1.75;;;19.20;69.10;;;;;;5086154;28;20048;-67
2021/06/03 00:55:56;;;;;;;5.07;1.55;;;19.20;69.30;;;;;;5087656;28;20032;-66
2021/06/03 00:58:22;;;;;;;3.40;1.40;;;19.20;69.70;;;;;;5093524;28;20035;-67
2021/06/03 01:00:49;;;;;;;3.17;1.75;;;19.10;70.00;;;;;;5090953;28;20031;-67
2021/06/03 01:03:15;;;;;;;4.25;1.52;;;19.10;70.40;;;;;;5093721;28;20047;-66
2021/06/03 01:05:47;;;;;;;4.22;2.00;;;19.00;70.50;;;;;;5091263;28;20470;-66
2021/06/03 01:08:18;;;;;;;4.03;1.52;;;19.10;70.90;;;;;;5080671;28;20500;-66
2021/06/03 01:11:01;;;;;;;3.67;1.63;;;19.00;71.00;;;;;;5083312;28;20032;-67
2021/06/03 01:13:54;;;;;;;4.07;1.50;;;19.00;71.10;;;;;;5068507;28;20123;-68
2021/06/03 01:16:21;;;;;;;3.40;1.20;;;19.00;71.30;;;;;;5086561;28;20044;-68
2021/06/03 01:18:47;;;;;;;5.18;1.70;;;18.90;71.60;;;;;;5093872;28;20061;-66
2021/06/03 01:21:18;;;;;;;2.65;1.63;;;18.80;71.50;;;;;;5089290;28;20443;-66
2021/06/03 01:24:17;;;;;;;2.10;1.35;;;18.80;71.60;;;;;;5093581;28;20036;-66
2021/06/03 01:26:44;;;;;;;2.50;1.05;;;18.90;71.60;;;;;;5082334;28;20020;-68
2021/06/03 01:29:13;;;;;;;2.70;1.27;;;18.80;71.90;;;;;;5094914;28;20500;-67
2021/06/03 01:31:38;;;;;;;3.25;1.40;;;18.70;72.10;;;;;;5081747;28;20386;-66
2021/06/03 01:34:04;;;;;;;2.42;1.35;;;18.70;72.20;;;;;;5083536;28;20028;-67
2021/06/03 01:36:30;;;;;;;2.50;1.23;;;18.70;72.30;;;;;;5075238;28;20035;-67
2021/06/03 01:38:59;;;;;;;2.45;1.33;;;18.60;72.60;;;;;;5088545;28;20024;-67
2021/06/03 01:41:25;;;;;;;2.85;1.52;;;18.60;72.90;;;;;;5090186;28;20041;-67
2021/06/03 01:43:52;;;;;;;3.92;1.27;;;18.50;73.10;;;;;;5093714;28;20028;-67
2021/06/03 01:46:17;;;;;;;2.28;1.30;;;18.50;73.30;;;;;;5088625;28;20032;-67
2021/06/03 01:48:43;;;;;;;2.97;1.38;;;18.40;73.60;;;;;;5095998;28;20503;-67
2021/06/03 01:51:12;;;;;;;3.63;1.60;;;18.50;73.80;;;;;;5090519;28;20024;-67
2021/06/03 01:53:39;;;;;;;4.28;1.50;;;18.40;74.00;;;;;;5090421;28;20489;-67
2021/06/03 01:56:08;;;;;;;2.63;1.20;;;18.40;74.30;;;;;;5085024;28;20024;-67
2021/06/03 01:58:33;;;;;;;2.65;1.38;;;18.40;74.50;;;;;;5090420;28;20099;-67
2021/06/03 02:00:59;;;;;;;4.38;1.50;;;18.40;74.70;;;;;;5093018;28;20116;-67
2021/06/03 02:03:26;;;;;;;2.33;1.48;;;18.40;74.90;;;;;;5082488;28;20057;-67
2021/06/03 02:05:53;;;;;;;2.67;1.55;;;18.30;75.10;;;;;;5093744;28;20020;-67
2021/06/03 02:08:19;;;;;;;7.55;1.50;;;18.30;75.30;;;;;;5065660;28;20035;-67
2021/06/03 02:10:45;;;;;;;2.50;1.35;;;18.30;75.50;;;;;;5089147;28;20035;-67
2021/06/03 02:13:16;;;;;;;3.42;1.92;;;18.30;75.60;;;;;;5090087;28;20027;-67
2021/06/03 02:15:53;;;;;;;3.10;1.38;;;18.40;75.80;;;;;;5088817;28;20029;-67
2021/06/03 02:18:21;;;;;;;2.50;1.45;;;18.40;75.90;;;;;;5087776;28;20060;-67
2021/06/03 02:20:47;;;;;;;2.45;1.30;;;18.40;76.00;;;;;;5091439;28;20032;-67
2021/06/03 02:23:16;;;;;;;3.05;2.17;;;18.40;76.20;;;;;;5091762;28;20028;-67
2021/06/03 02:25:42;;;;;;;2.60;1.52;;;18.40;76.40;;;;;;5092159;28;20016;-67
2021/06/03 02:28:09;;;;;;;2.72;1.75;;;18.30;76.60;;;;;;5079542;28;20031;-67
2021/06/03 02:30:34;;;;;;;5.57;2.83;;;18.30;76.80;;;;;;5094009;28;20102;-67
2021/06/03 02:33:00;;;;;;;3.63;2.42;;;18.30;77.10;;;;;;5093317;28;20116;-67
2021/06/03 02:35:27;;;;;;;4.40;1.95;;;18.30;77.40;;;;;;5089872;28;20119;-67
2021/06/03 02:37:53;;;;;;;3.60;2.10;;;18.20;77.70;;;;;;5086849;28;20024;-67
2021/06/03 02:40:24;;;;;;;3.20;2.20;;;18.10;78.10;;;;;;5082632;28;20496;-67
2021/06/03 02:42:51;;;;;;;3.55;2.30;;;18.10;78.40;;;;;;5083094;28;20385;-67
2021/06/03 02:45:21;;;;;;;4.15;2.13;;;18.00;78.60;;;;;;5087853;28;20032;-67
2021/06/03 02:47:48;;;;;;;4.80;2.00;;;18.00;78.80;;;;;;5084263;28;20036;-68
2021/06/03 02:50:15;;;;;;;3.55;2.10;;;18.10;78.90;;;;;;5087924;28;20089;-67
2021/06/03 02:52:41;;;;;;;3.97;2.03;;;18.00;79.00;;;;;;5086117;28;20135;-67
2021/06/03 02:55:13;;;;;;;4.68;2.20;;;18.00;79.00;;;;;;5087771;28;20107;-67
2021/06/03 02:57:39;;;;;;;4.85;2.40;;;17.90;79.20;;;;;;5080112;28;20382;-67
2021/06/03 03:00:10;;;;;;;2.47;2.03;;;17.80;79.50;;;;;;5090040;28;20101;-67
2021/06/03 03:02:36;;;;;;;3.22;2.30;;;17.80;79.80;;;;;;5092820;28;20020;-67
2021/06/03 03:05:02;;;;;;;6.65;2.35;;;17.80;80.00;;;;;;5089192;28;20032;-67
2021/06/03 03:07:28;;;;;;;3.00;2.33;;;17.80;80.30;;;;;;5061574;28;20381;-67
2021/06/03 03:09:53;;;;;;;5.72;3.00;;;17.70;80.70;;;;;;5065462;28;20537;-68
2021/06/03 03:12:19;;;;;;;4.10;2.28;;;17.70;81.70;;;;;;5086470;28;20107;-68
2021/06/03 03:14:44;;;;;;;3.55;2.40;;;17.70;81.30;;;;;;5057024;28;20067;-68
2021/06/03 03:17:10;;;;;;;5.05;2.75;;;17.60;81.40;;;;;;5089385;28;20082;-67
2021/06/03 03:19:35;;;;;;;5.20;2.17;;;17.50;81.70;;;;;;5076138;28;20119;-67
2021/06/03 03:22:02;;;;;;;4.03;2.33;;;17.30;82.00;;;;;;5092602;28;20016;-67
2021/06/03 03:24:28;;;;;;;3.38;2.47;;;17.40;82.50;;;;;;5091022;28;20427;-67
2021/06/03 03:26:54;;;;;;;3.35;2.40;;;17.40;82.60;;;;;;5064284;28;20048;-68
2021/06/03 03:29:20;;;;;;;5.53;2.60;;;17.40;82.80;;;;;;5074192;28;20033;-67
2021/06/03 03:31:45;;;;;;;4.07;2.83;;;17.40;82.80;;;;;;5090738;28;20031;-67
2021/06/03 03:34:11;;;;;;;3.33;2.80;;;17.40;82.90;;;;;;5091102;28;20477;-68
2021/06/03 03:36:37;;;;;;;4.15;2.88;;;17.30;83.20;;;;;;5084633;28;20071;-67
2021/06/03 03:39:05;;;;;;;4.95;2.83;;;17.30;83.40;;;;;;5080751;28;20173;-68
2021/06/03 03:41:31;;;;;;;4.22;2.70;;;17.20;83.70;;;;;;5080556;28;20024;-67
2021/06/03 03:43:57;;;;;;;3.42;2.05;;;17.10;84.10;;;;;;5080101;28;20079;-67
2021/06/03 03:46:23;;;;;;;6.60;2.40;;;17.10;84.40;;;;;;5089889;28;20032;-67
2021/06/03 03:48:48;;;;;;;5.38;2.63;;;17.10;84.70;;;;;;5087917;28;20115;-67
2021/06/03 03:51:14;;;;;;;3.97;2.70;;;17.00;85.00;;;;;;5091711;28;20024;-68
2021/06/03 03:53:42;;;;;;;4.00;2.65;;;17.00;85.20;;;;;;5085641;28;20064;-67
2021/06/03 03:56:08;;;;;;;5.85;3.17;;;17.00;85.40;;;;;;5086342;28;20054;-67
2021/06/03 03:58:38;;;;;;;6.15;3.22;;;17.00;85.70;;;;;;5068394;28;20427;-67
2021/06/03 04:01:04;;;;;;;5.32;2.95;;;17.00;85.90;;;;;;5090239;28;20070;-67
2021/06/03 04:03:30;;;;;;;4.38;3.00;;;17.10;86.10;;;;;;5080549;28;20016;-67
2021/06/03 04:05:55;;;;;;;4.07;3.05;;;17.10;86.10;;;;;;5092743;28;20046;-67
2021/06/03 04:08:21;;;;;;;3.88;3.47;;;17.20;86.30;;;;;;5087002;28;20052;-67
2021/06/03 04:10:47;;;;;;;5.38;3.38;;;17.20;86.30;;;;;;5087637;28;20529;-67
2021/06/03 04:13:13;;;;;;;3.78;3.33;;;17.30;86.30;;;;;;5088672;28;20031;-67
2021/06/03 04:15:38;;;;;;;4.93;2.53;;;17.40;86.30;;;;;;5093314;28;20389;-67
2021/06/03 04:18:04;;;;;;;6.22;3.03;;;17.50;86.30;;;;;;5088065;28;20060;-67
2021/06/03 04:20:33;;;;;;;5.30;2.92;;;17.50;86.20;;;;;;5093018;28;20028;-67
2021/06/03 04:22:58;;;;;;;3.92;2.42;;;17.60;86.30;;;;;;5086518;28;20053;-67
2021/06/03 04:25:25;;;;;;;5.82;2.80;;;17.70;86.40;;;;;;5087798;28;20113;-68
2021/06/03 04:27:51;;;;;;;4.28;2.83;;;17.70;86.70;;;;;;5086615;28;20101;-67
2021/06/03 04:30:19;;;;;;;4.90;3.08;;;17.80;86.50;;;;;;5073553;28;20028;-67
2021/06/03 04:32:45;;;;;;;4.18;2.75;;;17.90;86.50;;;;;;5090127;28;20060;-68
2021/06/03 04:35:11;;;;;;;5.65;3.10;;;17.90;86.40;;;;;;5085516;28;20071;-68
2021/06/03 04:37:37;;;;;;;8.73;4.28;;;18.00;86.40;;;;;;5079959;28;20024;-68
2021/06/03 04:40:04;;;;;;;6.50;3.88;;;18.00;86.40;;;;;;5089256;28;20028;-68
2021/06/03 04:42:30;;;;;;;6.88;3.65;;;18.00;86.30;;;;;;5073842;28;20391;-68
2021/06/03 04:44:55;;;;;;;5.15;4.43;;;18.00;86.10;;;;;;5071640;28;20028;-67
2021/06/03 04:47:21;;;;;;;7.78;4.95;;;18.00;86.00;;;;;;5079227;28;20028;-67
2021/06/03 04:49:46;;;;;;;7.05;4.72;;;18.10;86.00;;;;;;5070667;28;20077;-67
2021/06/03 04:52:31;;;;;;;6.25;4.70;;;18.00;85.90;;;;;;5076639;28;20563;-67
2021/06/03 04:55:00;;;;;;;5.90;5.30;;;18.10;85.90;;;;;;5086785;28;20039;-67
2021/06/03 04:57:27;;;;;;;7.15;5.28;;;18.10;85.80;;;;;;5068309;28;20065;-67
2021/06/03 04:59:53;;;;;;;10.48;5.82;;;18.10;85.90;;;;;;5088570;28;20036;-67
2021/06/03 05:02:21;;;;;;;6.65;5.40;;;18.10;85.90;;;;;;5068515;28;20119;-67
2021/06/03 05:04:47;;;;;;;5.97;5.32;;;18.10;85.90;;;;;;5082741;28;20569;-67
2021/06/03 05:07:13;;;;;;;7.45;5.35;;;18.10;85.80;;;;;;5090586;28;20060;-67
2021/06/03 05:09:38;;;;;;;7.40;5.82;;;18.20;86.00;;;;;;5077988;28;20058;-67
2021/06/03 05:12:06;;;;;;;6.60;5.88;;;18.20;86.00;;;;;;5092738;28;20023;-67
2021/06/03 05:14:31;;;;;;;7.03;6.20;;;18.20;85.90;;;;;;5071674;28;20028;-67
2021/06/03 05:16:58;;;;;;;6.90;6.00;;;18.20;85.90;;;;;;5083110;28;20048;-67
2021/06/03 05:19:24;;;;;;;6.28;5.60;;;18.20;85.90;;;;;;5082228;28;20035;-67
2021/06/03 05:21:49;;;;;;;8.38;6.50;;;18.20;86.10;;;;;;5087641;28;20029;-67
2021/06/03 05:24:15;;;;;;;7.65;6.72;;;18.20;86.20;;;;;;5082345;28;20056;-67
2021/06/03 05:26:40;;;;;;;7.68;6.88;;;18.20;86.30;;;;;;5090836;28;20066;-67
2021/06/03 05:29:07;;;;;;;10.85;7.40;;;18.30;86.40;;;;;;5083399;28;20024;-67
2021/06/03 05:31:33;;;;;;;8.00;7.13;;;18.30;86.50;;;;;;5087091;28;20020;-66
2021/06/03 05:33:58;;;;;;;8.43;7.53;;;18.30;86.80;;;;;;5083549;28;20367;-67
2021/06/03 05:36:24;;;;;;;8.65;6.80;;;18.50;87.30;;;;;;5081668;28;20028;-67
2021/06/03 05:38:49;;;;;;;7.20;6.50;;;18.80;87.40;;;;;;5061304;28;20035;-67
2021/06/03 05:41:15;;;;;;;6.63;6.00;;;19.30;87.10;;;;;;5072136;28;20095;-66
2021/06/03 05:43:42;;;;;;;6.40;5.60;;;19.80;86.30;;;;;;5087300;28;20381;-66
2021/06/03 05:46:07;;;;;;;10.23;6.05;;;20.30;84.90;;;;;;5086407;28;20028;-67
2021/06/03 05:48:33;;;;;;;6.93;6.22;;;20.70;83.40;;;;;;5085437;28;20079;-67
2021/06/03 05:50:58;;;;;;;10.13;6.65;;;21.00;81.90;;;;;;5092257;28;20032;-67
2021/06/03 05:53:24;;;;;;;11.18;6.18;;;21.20;80.90;;;;;;5087360;28;20171;-67
2021/06/03 05:55:49;;;;;;;11.32;5.78;;;21.30;79.90;;;;;;5089302;28;20397;-66
2021/06/03 05:58:15;;;;;;;8.27;6.80;;;21.30;79.40;;;;;;5087348;28;20048;-67
2021/06/03 06:00:40;;;;;;;7.53;5.97;;;21.40;79.00;;;;;;5094268;28;20028;-67
2021/06/03 06:03:17;;;;;;;7.43;6.40;;;21.40;78.80;;;;;;5088564;28;20505;-67
2021/06/03 06:08:26;;;;;;;8.00;6.40;;;21.30;78.60;;;;;;5087784;28;20039;-67
2021/06/03 06:10:52;;;;;;;7.03;6.18;;;21.30;78.80;;;;;;5081694;28;20037;-67
2021/06/03 06:13:18;;;;;;;8.30;6.50;;;21.20;78.80;;;;;;5090462;28;20060;-67
2021/06/03 06:15:43;;;;;;;9.57;6.28;;;21.10;79.10;;;;;;5086410;28;20397;-66
2021/06/03 06:18:09;;;;;;;8.95;6.22;;;21.00;79.30;;;;;;5093700;28;20032;-66
2021/06/03 06:20:38;;;;;;;7.45;6.65;;;20.90;79.80;;;;;;5094517;28;20051;-67
2021/06/03 06:23:03;;;;;;;11.27;6.50;;;20.80;80.20;;;;;;5094399;28;20032;-67
2021/06/03 06:25:29;;;;;;;9.80;7.57;;;20.80;80.50;;;;;;5085869;28;20024;-67
2021/06/03 06:27:55;;;;;;;6.97;6.28;;;20.80;80.70;;;;;;5081556;28;20022;-67
2021/06/03 06:30:21;;;;;;;8.32;6.20;;;21.00;80.70;;;;;;5082374;28;20039;-67
2021/06/03 06:32:47;;;;;;;8.23;6.28;;;21.10;80.30;;;;;;5087128;28;20473;-67
2021/06/03 06:35:13;;;;;;;8.68;6.40;;;21.30;79.80;;;;;;5085340;28;20017;-67
2021/06/03 06:37:39;;;;;;;8.25;6.10;;;21.40;79.50;;;;;;5085619;28;20020;-67
2021/06/03 06:40:06;;;;;;;6.70;6.00;;;21.50;79.30;;;;;;5082379;28;20046;-67
2021/06/03 06:42:34;;;;;;;8.13;4.93;;;21.60;79.10;;;;;;5084787;28;20048;-67
2021/06/03 06:45:00;;;;;;;7.45;5.38;;;21.70;78.70;;;;;;5082781;28;20039;-67
2021/06/03 06:47:26;;;;;;;7.72;5.72;;;21.80;78.70;;;;;;5078157;28;20032;-66
2021/06/03 06:49:51;;;;;;;6.80;4.75;;;22.00;78.20;;;;;;5067584;28;20025;-66
2021/06/03 06:52:17;;;;;;;5.85;5.00;;;22.20;77.40;;;;;;5079316;28;20109;-67
2021/06/03 06:54:43;;;;;;;9.82;5.45;;;22.40;77.00;;;;;;5082168;28;20035;-67
2021/06/03 06:57:08;;;;;;;9.00;5.68;;;22.50;76.30;;;;;;5084201;28;20042;-67
2021/06/03 06:59:34;;;;;;;7.20;5.25;;;22.70;76.20;;;;;;5084032;28;20389;-67
2021/06/03 07:02:00;;;;;;;9.02;6.10;;;22.70;75.50;;;;;;5064970;28;20028;-67
2021/06/03 07:04:26;;;;;;;7.40;5.68;;;22.70;74.80;;;;;;5083358;28;20028;-66
2021/06/03 07:06:51;;;;;;;7.60;5.63;;;22.60;75.00;;;;;;5081953;28;20047;-67
2021/06/03 07:09:17;;;;;;;7.85;5.95;;;22.50;75.40;;;;;;5083852;28;20024;-67
2021/06/03 07:11:42;;;;;;;8.98;6.32;;;22.60;75.30;;;;;;5070451;28;20123;-67
2021/06/03 07:14:08;;;;;;;11.75;6.72;;;22.60;75.10;;;;;;5085700;28;20028;-67
2021/06/03 07:16:33;;;;;;;8.02;6.38;;;22.60;75.20;;;;;;5076484;28;20039;-67
2021/06/03 07:18:59;;;;;;;8.65;6.32;;;22.60;75.50;;;;;;5090048;28;20533;-67
2021/06/03 07:21:24;;;;;;;7.25;6.28;;;22.60;75.40;;;;;;5082395;28;20036;-66
2021/06/03 07:23:50;;;;;;;8.93;5.82;;;22.70;75.00;;;;;;5081719;28;20020;-67
2021/06/03 07:26:16;;;;;;;6.65;5.70;;;22.70;75.00;;;;;;5083355;28;20032;-67
2021/06/03 07:28:41;;;;;;;8.70;5.55;;;22.70;75.20;;;;;;5083584;28;20369;-67
2021/06/03 07:31:08;;;;;;;8.35;6.07;;;22.60;75.20;;;;;;5067665;28;20035;-66
2021/06/03 07:33:34;;;;;;;9.00;6.28;;;22.60;75.10;;;;;;5083530;28;20031;-67
2021/06/03 07:36:00;;;;;;;7.45;5.70;;;22.60;75.30;;;;;;5052681;28;20032;-67
2021/06/03 07:38:25;;;;;;;9.15;6.30;;;22.60;75.40;;;;;;5082735;28;20042;-67
2021/06/03 07:40:51;;;;;;;6.57;5.93;;;22.70;75.90;;;;;;5082804;28;20150;-68
2021/06/03 07:43:18;;;;;;;7.38;6.00;;;22.70;75.50;;;;;;5085346;28;20024;-67
2021/06/03 07:45:44;;;;;;;8.38;6.43;;;22.90;75.40;;;;;;5079540;28;20039;-67
2021/06/03 07:48:10;;;;;;;11.50;6.68;;;23.10;75.10;;;;;;5080976;28;20493;-65
2021/06/03 07:50:37;;;;;;;8.88;6.05;;;23.30;74.70;;;;;;5069791;28;20485;-66
2021/06/03 07:53:04;;;;;;;7.57;6.53;;;23.60;74.40;;;;;;5082226;28;20046;-66
2021/06/03 07:55:30;;;;;;;9.20;6.60;;;23.80;73.60;;;;;;5085039;28;20032;-66
2021/06/03 07:58:00;;;;;;;10.10;5.97;;;23.90;72.50;;;;;;5071248;28;20058;-65
2021/06/03 08:00:28;;;;;;;7.20;5.50;;;24.00;72.00;;;;;;5081004;28;20116;-66
2021/06/03 08:02:54;;;;;;;7.32;6.15;;;24.10;72.00;;;;;;5082546;28;20074;-66
2021/06/03 08:05:22;;;;;;;10.95;6.90;;;24.10;71.40;;;;;;5081238;28;20039;-66
2021/06/03 08:07:48;;;;;;;9.52;6.57;;;24.00;71.20;;;;;;5083287;28;20024;-66
2021/06/03 08:10:18;;;;;;;10.45;6.93;;;24.10;71.40;;;;;;5083277;28;20089;-66
2021/06/03 08:12:44;;;;;;;7.15;6.03;;;24.30;71.40;;;;;;5084565;28;20028;-67
2021/06/03 08:15:11;;;;;;;8.18;6.32;;;24.50;70.70;;;;;;5068906;28;20062;-66
2021/06/03 08:17:37;;;;;;;7.93;6.40;;;24.60;70.50;;;;;;5080273;28;20032;-66
2021/06/03 08:20:09;;;;;;;8.82;6.97;;;24.70;70.20;;;;;;5081363;28;20028;-67
2021/06/03 08:22:35;;;;;;;7.15;6.47;;;24.80;70.00;;;;;;5081663;28;21392;-66
2021/06/03 08:25:03;;;;;;;10.45;6.72;;;24.90;69.00;;;;;;5081844;28;20512;-66
2021/06/03 08:27:29;;;;;;;7.22;6.40;;;25.10;68.40;;;;;;5063266;28;20024;-67
2021/06/03 08:29:54;;;;;;;7.10;5.45;;;25.20;68.50;;;;;;5079613;28;22381;-67
2021/06/03 08:32:20;;;;;;;7.55;5.13;;;25.30;68.20;;;;;;5080427;28;20046;-67
2021/06/03 08:34:45;;;;;;;6.05;5.32;;;25.50;67.30;;;;;;5065630;28;20039;-67
2021/06/03 08:37:11;;;;;;;6.07;4.60;;;25.60;67.10;;;;;;5082805;28;21624;-67
2021/06/03 08:39:36;;;;;;;5.72;4.47;;;25.60;66.30;;;;;;5084216;28;20032;-67
2021/06/03 08:42:04;;;;;;;5.15;4.32;;;25.70;65.60;;;;;;5080895;28;20047;-67
2021/06/03 08:44:30;;;;;;;6.35;4.93;;;25.80;65.20;;;;;;5069415;28;20367;-67
2021/06/03 08:46:57;;;;;;;7.30;5.00;;;25.90;64.90;;;;;;5085850;28;20027;-67
2021/06/03 08:49:23;;;;;;;8.68;4.68;;;25.90;64.40;;;;;;5080123;28;20108;-67
2021/06/03 08:51:54;;;;;;;6.65;4.70;;;25.90;65.20;;;;;;5082500;28;20557;-67
2021/06/03 08:54:19;;;;;;;5.70;4.63;;;26.00;65.00;;;;;;5082256;28;20028;-67
2021/06/03 08:56:46;;;;;;;4.30;3.00;;;26.10;65.00;;;;;;5082932;28;20050;-67
2021/06/03 08:59:12;;;;;;;6.38;4.40;;;26.30;64.50;;;;;;5067573;28;20097;-67
2021/06/03 09:01:39;;;;;;;4.90;3.60;;;26.50;63.70;;;;;;5068600;28;20036;-68
2021/06/03 09:04:05;;;;;;;6.35;4.30;;;26.60;63.30;;;;;;5080018;28;20167;-67
2021/06/03 09:06:32;;;;;;;5.68;3.63;;;26.70;63.30;;;;;;5082903;28;20373;-67
2021/06/03 09:08:59;;;;;;;6.30;4.57;;;26.80;63.20;;;;;;5064540;28;20561;-67
2021/06/03 09:11:30;;;;;;;7.80;4.93;;;26.90;62.80;;;;;;5082458;28;20059;-66
2021/06/03 09:14:05;;;;;;;8.23;4.88;;;26.80;62.70;;;;;;5068526;28;20097;-67
2021/06/03 09:16:36;;;;;;;8.18;3.47;;;26.70;62.80;;;;;;5085162;28;20412;-67
2021/06/03 09:19:10;;;;;;;6.65;4.85;;;26.70;63.00;;;;;;5071935;28;20024;-67
2021/06/03 09:21:51;;;;;;;6.82;3.88;;;26.70;62.80;;;;;;5088472;28;20032;-67
2021/06/03 09:24:19;;;;;;;6.63;4.13;;;26.60;63.00;;;;;;5071384;28;20039;-67
2021/06/03 09:26:49;;;;;;;6.00;4.65;;;26.60;63.30;;;;;;5083302;28;20030;-67
2021/06/03 09:29:30;;;;;;;8.15;5.57;;;26.70;63.40;;;;;;5072070;28;20036;-67
2021/06/03 09:32:02;;;;;;;10.57;6.28;;;26.80;62.80;;;;;;5083158;28;20032;-67
2021/06/03 09:34:27;;;;;;;6.95;5.28;;;26.80;63.20;;;;;;5068154;28;20553;-66
2021/06/03 09:37:02;;;;;;;6.60;5.22;;;26.90;62.90;;;;;;5087522;28;20032;-66
2021/06/03 09:39:30;;;;;;;8.70;6.15;;;27.20;63.10;;;;;;5075880;28;20035;-66
2021/06/03 09:41:58;;;;;;;9.35;6.32;;;27.30;62.30;;;;;;5087831;28;20027;-66
2021/06/03 09:44:33;;;;;;;9.48;6.40;;;27.40;62.00;;;;;;5086452;28;20107;-66
2021/06/03 09:47:15;;;;;;;9.65;6.55;;;27.40;61.90;;;;;;5084899;28;20416;-66
2021/06/03 09:49:46;;;;;;;12.02;6.13;;;27.40;61.60;;;;;;5083123;28;20769;-66
2021/06/03 09:52:16;;;;;;;8.90;5.97;;;27.40;61.90;;;;;;5085251;28;20040;-66
2021/06/03 09:54:47;;;;;;;5.93;5.30;;;27.60;62.10;;;;;;5082843;28;20103;-66
2021/06/03 09:57:13;;;;;;;7.22;5.22;;;27.80;61.40;;;;;;5084157;28;20024;-66
2021/06/03 09:59:47;;;;;;;5.25;4.75;;;27.90;60.90;;;;;;5069514;28;20043;-66
2021/06/03 10:02:14;;;;;;;6.75;4.50;;;28.20;60.30;;;;;;5076008;28;20032;-66
2021/06/03 10:04:50;;;;;;;7.03;4.80;;;28.30;59.60;;;;;;5059539;28;20039;-66
2021/06/03 10:07:18;;;;;;;4.78;3.65;;;28.20;59.50;;;;;;5075503;28;20505;-66
2021/06/03 10:10:10;;;;;;;5.07;3.22;;;28.10;59.30;;;;;;5067853;28;20432;-66
2021/06/03 10:12:43;;;;;;;6.53;2.85;;;28.00;59.60;;;;;;5081224;28;20023;-66
2021/06/03 10:15:14;;;;;;;4.93;3.63;;;28.00;59.40;;;;;;5081563;28;20425;-66
2021/06/03 10:17:48;;;;;;;5.45;4.38;;;28.10;59.30;;;;;;5075078;28;20028;-66
2021/06/03 10:20:20;;;;;;;10.38;4.53;;;28.30;59.40;;;;;;5077651;28;20082;-66
2021/06/03 10:22:49;;;;;;;7.18;4.78;;;28.30;59.10;;;;;;5075886;28;20078;-66
2021/06/03 10:25:27;;;;;;;7.68;3.08;;;28.20;59.10;;;;;;5090489;28;20511;-66
2021/06/03 10:27:56;;;;;;;7.15;4.22;;;28.20;59.10;;;;;;5087014;28;20028;-66
2021/06/03 10:30:27;;;;;;;7.25;4.80;;;28.40;59.00;;;;;;5077201;28;20036;-66
2021/06/03 10:32:55;;;;;;;;;;;28.40;58.80;;;;;;5083754;28;20522;-66
2021/06/03 10:35:24;;;;;;;7.72;4.03;;;28.30;58.80;;;;;;5091456;28;19914;-67
2021/06/03 10:37:51;;;;;;;6.43;4.63;;;28.10;59.30;;;;;;5092706;28;20028;-66
2021/06/03 10:40:20;;;;;;;7.07;3.78;;;27.90;59.40;;;;;;5094264;28;20024;-66
2021/06/03 10:42:46;;;;;;;7.72;4.32;;;27.60;60.20;;;;;;5090147;28;20028;-66
2021/06/03 10:45:14;;;;;;;7.13;4.40;;;27.40;61.30;;;;;;5086811;28;20024;-66
2021/06/03 10:47:41;;;;;;;7.07;3.90;;;27.30;61.40;;;;;;5088569;28;20020;-66
2021/06/03 10:50:11;;;;;;;4.97;4.07;;;27.20;61.90;;;;;;5091542;28;20170;-66
2021/06/03 10:52:36;;;;;;;5.53;4.28;;;27.10;62.40;;;;;;5084260;28;20278;-66
2021/06/03 10:55:03;;;;;;;4.60;3.33;;;27.00;62.40;;;;;;5083175;28;20085;-66
2021/06/03 10:57:51;;;;;;;5.13;2.35;;;26.90;62.40;;;;;;5084826;28;20055;-66
2021/06/03 11:00:31;;;;;;;4.05;2.88;;;26.90;63.20;;;;;;5088690;28;20036;-66
2021/06/03 11:03:21;;;;;;;3.55;2.38;;;26.90;63.50;;;;;;5084601;28;20024;-66
2021/06/03 11:05:49;;;;;;;4.53;2.30;;;26.90;62.80;;;;;;5086145;28;20073;-66
2021/06/03 11:08:29;;;;;;;5.22;3.45;;;26.80;63.10;;;;;;5084412;28;20119;-66
2021/06/03 11:11:15;;;;;;;7.53;4.10;;;26.90;63.60;;;;;;5091433;28;20031;-67
2021/06/03 11:13:46;;;;;;;7.85;4.47;;;27.10;63.50;;;;;;5072282;28;20510;-66
2021/06/03 11:16:19;;;;;;;5.55;4.38;;;27.20;64.10;;;;;;5085435;28;20060;-66
2021/06/03 11:18:44;;;;;;;5.45;3.65;;;27.30;63.50;;;;;;5077686;28;20118;-66
2021/06/03 11:21:33;;;;;;;7.22;4.00;;;27.50;63.50;;;;;;5088523;28;20110;-66
2021/06/03 11:23:59;;;;;;;6.60;4.22;;;27.70;63.30;;;;;;5086975;28;20469;-66
2021/06/03 11:26:37;;;;;;;7.03;2.72;;;27.60;62.90;;;;;;5086209;28;20020;-66
2021/06/03 11:29:26;;;;;;;3.33;2.65;;;27.70;62.60;;;;;;5077106;28;20134;-67
2021/06/03 11:32:06;;;;;;;4.55;3.47;;;27.80;62.10;;;;;;5083293;28;20493;-66
2021/06/03 11:34:41;;;;;;;6.18;3.53;;;28.00;62.30;;;;;;5078240;28;20404;-66
2021/06/03 11:37:23;;;;;;;4.65;2.78;;;28.10;61.10;;;;;;5077513;28;20047;-66
2021/06/03 11:40:08;;;;;;;4.22;2.75;;;28.10;61.60;;;;;;5079268;28;20572;-66
2021/06/03 11:42:46;;;;;;;3.42;2.05;;;28.10;61.90;;;;;;5077799;28;20073;-66
2021/06/03 11:45:22;;;;;;;4.07;2.53;;;28.20;60.90;;;;;;5075301;28;20062;-66
2021/06/03 11:47:47;;;;;;;4.85;2.70;;;28.10;61.20;;;;;;5075995;28;20034;-66
2021/06/03 11:50:16;;;;;;;4.45;2.97;;;27.90;60.70;;;;;;5076466;28;20032;-66
2021/06/03 11:52:59;;;;;;;3.63;2.63;;;28.00;61.60;;;;;;5078691;28;20043;-66
2021/06/03 11:55:31;;;;;;;3.00;1.60;;;28.20;60.70;;;;;;5076122;28;20027;-66
2021/06/03 11:58:12;;;;;;;5.03;2.13;;;28.30;59.80;;;;;;5076671;28;20085;-66
2021/06/03 12:00:45;;;;;;;5.90;2.25;;;28.70;59.20;;;;;;5078847;28;20031;-66
2021/06/03 12:03:26;;;;;;;4.28;2.47;;;29.00;58.50;;;;;;5080705;28;20024;-66
2021/06/03 12:05:55;;;;;;;3.28;2.70;;;29.30;58.20;;;;;;5087954;28;20024;-66
2021/06/03 12:08:31;;;;;;;4.38;2.35;;;29.30;57.70;;;;;;5058854;28;20032;-65
2021/06/03 12:10:56;;;;;;;6.70;2.67;;;29.30;58.00;;;;;;5077803;28;20047;-66
2021/06/03 12:13:22;;;;;;;3.85;3.28;;;29.20;57.50;;;;;;5070391;28;20390;-66
2021/06/03 12:15:48;;;;;;;5.35;3.45;;;28.90;57.40;;;;;;5087940;28;20020;-66
2021/06/03 12:18:14;;;;;;;6.68;4.05;;;28.60;58.10;;;;;;5065817;28;20043;-66
2021/06/03 12:20:39;;;;;;;23.65;8.60;;;28.30;59.20;;;;;;5065018;28;20158;-65
2021/06/03 12:23:08;;;;;;;31.10;13.00;;;27.90;63.30;;;;;;5087638;28;20077;-74
2021/06/03 12:25:35;;;;;;;12.65;8.30;;;26.90;67.20;;;;;;5088072;28;20103;-72
2021/06/03 12:28:01;;;;;;;11.25;5.78;;;24.70;71.70;;;;;;5068148;28;20031;-71
2021/06/03 12:30:30;;;;;;;5.05;4.57;;;23.30;76.50;;;;;;5081145;28;20032;-69
2021/06/03 12:33:00;;;;;;;9.60;7.25;;;22.50;80.90;;;;;;5082808;28;20020;-69
2021/06/03 12:35:52;;;;;;;12.60;10.73;;;22.00;83.70;;;;;;5087075;28;20106;-70
2021/06/03 12:38:44;;;;;;;15.70;13.90;;;21.70;85.60;;;;;;5080705;28;20509;-70
2021/06/03 12:41:29;;;;;;;16.47;13.67;;;21.50;87.80;;;;;;5059753;28;20133;-70
2021/06/03 12:44:00;;;;;;;19.55;17.02;;;21.50;89.20;;;;;;5083417;28;20473;-70
2021/06/03 12:46:31;;;;;;;22.33;20.02;;;21.50;90.40;;;;;;5078845;28;20048;-70
2021/06/03 12:49:04;;;;;;;21.92;17.02;;;21.60;90.90;;;;;;5054491;28;20232;-70
2021/06/03 12:51:29;;;;;;;18.95;16.95;;;21.80;91.10;;;;;;5084185;28;20768;-70
2021/06/03 12:53:55;;;;;;;19.50;17.10;;;21.90;91.30;;;;;;5081274;28;20056;-69
2021/06/03 12:56:23;;;;;;;18.55;16.23;;;22.00;91.60;;;;;;5086792;28;20068;-69